sensor_id;sensor_type;location;lat;lon;timestamp;pressure;altitude;pressure_sealevel;temperature;humidity
48095;BME280;33874;52.070;-0.516;2023-04-22T00:03:48;100439.94;;;7.42;70.47
48095;BME280;33874;52.070;-0.516;2023-04-22T00:06:23;100439.45;;;7.40;70.86
48095;BME280;33874;52.070;-0.516;2023-04-22T00:08:51;100434.69;;;7.40;71.41
48095;BME280;33874;52.070;-0.516;2023-04-22T00:11:20;100430.16;;;7.42;71.57
48095;BME280;33874;52.070;-0.516;2023-04-22T00:13:48;100428.63;;;7.44;71.93
48095;BME280;33874;52.070;-0.516;2023-04-22T00:16:55;100424.85;;;7.48;72.16
48095;BME280;33874;52.070;-0.516;2023-04-22T00:19:49;100414.23;;;7.52;72.60
48095;BME280;33874;52.070;-0.516;2023-04-22T00:22:54;100409.05;;;7.55;72.72
48095;BME280;33874;52.070;-0.516;2023-04-22T00:25:22;100407.61;;;7.58;73.03
48095;BME280;33874;52.070;-0.516;2023-04-22T00:27:50;100405.92;;;7.59;72.97
48095;BME280;33874;52.070;-0.516;2023-04-22T00:36:28;100396.45;;;7.66;73.45
48095;BME280;33874;52.070;-0.516;2023-04-22T00:38:56;100389.36;;;7.67;73.69
48095;BME280;33874;52.070;-0.516;2023-04-22T00:41:24;100381.64;;;7.68;73.76
48095;BME280;33874;52.070;-0.516;2023-04-22T00:43:55;100387.61;;;7.65;73.79
48095;BME280;33874;52.070;-0.516;2023-04-22T00:46:25;100385.95;;;7.64;74.05
48095;BME280;33874;52.070;-0.516;2023-04-22T00:48:53;100380.23;;;7.66;74.37
48095;BME280;33874;52.070;-0.516;2023-04-22T00:51:22;100375.52;;;7.68;74.41
48095;BME280;33874;52.070;-0.516;2023-04-22T00:53:50;100373.04;;;7.68;74.39
48095;BME280;33874;52.070;-0.516;2023-04-22T00:56:24;100369.17;;;7.70;74.76
48095;BME280;33874;52.070;-0.516;2023-04-22T00:59:19;100363.31;;;7.75;74.87
48095;BME280;33874;52.070;-0.516;2023-04-22T01:02:00;100364.37;;;7.79;74.92
48095;BME280;33874;52.070;-0.516;2023-04-22T01:04:28;100363.95;;;7.82;75.03
48095;BME280;33874;52.070;-0.516;2023-04-22T01:06:57;100356.25;;;7.84;75.17
48095;BME280;33874;52.070;-0.516;2023-04-22T01:09:25;100352.08;;;7.86;75.23
48095;BME280;33874;52.070;-0.516;2023-04-22T01:11:53;100347.42;;;7.83;74.99
48095;BME280;33874;52.070;-0.516;2023-04-22T01:14:23;100342.18;;;7.78;74.82
48095;BME280;33874;52.070;-0.516;2023-04-22T01:16:51;100339.39;;;7.76;75.31
48095;BME280;33874;52.070;-0.516;2023-04-22T01:19:25;100330.97;;;7.78;75.57
48095;BME280;33874;52.070;-0.516;2023-04-22T01:22:28;100336.89;;;7.81;75.45
48095;BME280;33874;52.070;-0.516;2023-04-22T01:25:01;100333.88;;;7.81;75.48
48095;BME280;33874;52.070;-0.516;2023-04-22T01:27:33;100327.90;;;7.82;75.55
48095;BME280;33874;52.070;-0.516;2023-04-22T01:30:09;100330.83;;;7.82;75.62
48095;BME280;33874;52.070;-0.516;2023-04-22T01:32:38;100330.15;;;7.82;75.63
48095;BME280;33874;52.070;-0.516;2023-04-22T01:35:07;100333.07;;;7.81;75.51
48095;BME280;33874;52.070;-0.516;2023-04-22T01:37:36;100326.36;;;7.81;75.60
48095;BME280;33874;52.070;-0.516;2023-04-22T01:40:06;100324.05;;;7.84;75.95
48095;BME280;33874;52.070;-0.516;2023-04-22T01:42:37;100321.90;;;7.85;75.73
48095;BME280;33874;52.070;-0.516;2023-04-22T01:45:05;100324.00;;;7.82;75.82
48095;BME280;33874;52.070;-0.516;2023-04-22T01:47:55;100324.54;;;7.80;75.71
48095;BME280;33874;52.070;-0.516;2023-04-22T01:50:22;100320.72;;;7.78;75.92
48095;BME280;33874;52.070;-0.516;2023-04-22T01:53:00;100315.38;;;7.75;75.96
48095;BME280;33874;52.070;-0.516;2023-04-22T01:55:31;100315.95;;;7.74;76.11
48095;BME280;33874;52.070;-0.516;2023-04-22T01:58:03;100318.83;;;7.70;76.17
48095;BME280;33874;52.070;-0.516;2023-04-22T02:00:31;100311.73;;;7.65;76.14
48095;BME280;33874;52.070;-0.516;2023-04-22T02:02:59;100306.05;;;7.57;76.08
48095;BME280;33874;52.070;-0.516;2023-04-22T02:05:38;100302.98;;;7.56;76.56
48095;BME280;33874;52.070;-0.516;2023-04-22T02:08:06;100305.56;;;7.59;76.81
48095;BME280;33874;52.070;-0.516;2023-04-22T02:10:34;100305.45;;;7.62;76.95
48095;BME280;33874;52.070;-0.516;2023-04-22T02:13:02;100302.02;;;7.68;77.03
48095;BME280;33874;52.070;-0.516;2023-04-22T02:15:33;100303.71;;;7.74;77.08
48095;BME280;33874;52.070;-0.516;2023-04-22T02:18:02;100302.79;;;7.77;77.02
48095;BME280;33874;52.070;-0.516;2023-04-22T02:20:30;100305.30;;;7.76;76.79
48095;BME280;33874;52.070;-0.516;2023-04-22T02:22:58;100307.04;;;7.76;76.73
48095;BME280;33874;52.070;-0.516;2023-04-22T02:25:29;100309.58;;;7.75;76.76
48095;BME280;33874;52.070;-0.516;2023-04-22T02:27:58;100312.74;;;7.72;76.58
48095;BME280;33874;52.070;-0.516;2023-04-22T02:30:33;100312.58;;;7.70;76.58
48095;BME280;33874;52.070;-0.516;2023-04-22T02:33:01;100312.90;;;7.68;76.50
48095;BME280;33874;52.070;-0.516;2023-04-22T02:35:33;100306.41;;;7.66;76.46
48095;BME280;33874;52.070;-0.516;2023-04-22T02:38:02;100306.83;;;7.65;76.75
48095;BME280;33874;52.070;-0.516;2023-04-22T02:40:30;100313.01;;;7.66;76.77
48095;BME280;33874;52.070;-0.516;2023-04-22T02:42:58;100313.81;;;7.69;77.02
48095;BME280;33874;52.070;-0.516;2023-04-22T02:45:26;100313.00;;;7.71;76.92
48095;BME280;33874;52.070;-0.516;2023-04-22T02:47:54;100311.03;;;7.69;76.67
48095;BME280;33874;52.070;-0.516;2023-04-22T02:50:22;100313.74;;;7.70;77.08
48095;BME280;33874;52.070;-0.516;2023-04-22T02:52:52;100315.27;;;7.74;77.11
48095;BME280;33874;52.070;-0.516;2023-04-22T02:55:23;100310.54;;;7.74;77.00
48095;BME280;33874;52.070;-0.516;2023-04-22T02:57:51;100310.46;;;7.75;76.98
48095;BME280;33874;52.070;-0.516;2023-04-22T03:00:22;100309.79;;;7.77;77.07
48095;BME280;33874;52.070;-0.516;2023-04-22T03:02:50;100307.87;;;7.79;77.20
48095;BME280;33874;52.070;-0.516;2023-04-22T03:05:18;100308.80;;;7.80;77.10
48095;BME280;33874;52.070;-0.516;2023-04-22T03:07:49;100305.52;;;7.80;76.94
48095;BME280;33874;52.070;-0.516;2023-04-22T03:10:19;100300.91;;;7.78;77.01
48095;BME280;33874;52.070;-0.516;2023-04-22T03:12:47;100295.86;;;7.78;76.84
48095;BME280;33874;52.070;-0.516;2023-04-22T03:15:16;100294.40;;;7.78;77.04
48095;BME280;33874;52.070;-0.516;2023-04-22T03:17:48;100287.91;;;7.81;77.01
48095;BME280;33874;52.070;-0.516;2023-04-22T03:20:17;100281.06;;;7.83;77.06
48095;BME280;33874;52.070;-0.516;2023-04-22T03:22:45;100274.70;;;7.84;76.90
48095;BME280;33874;52.070;-0.516;2023-04-22T03:25:13;100264.70;;;7.80;76.46
48095;BME280;33874;52.070;-0.516;2023-04-22T03:27:41;100263.80;;;7.76;76.55
48095;BME280;33874;52.070;-0.516;2023-04-22T03:30:11;100262.14;;;7.75;76.67
48095;BME280;33874;52.070;-0.516;2023-04-22T03:32:39;100257.63;;;7.75;76.62
48095;BME280;33874;52.070;-0.516;2023-04-22T03:35:08;100255.45;;;7.78;77.08
48095;BME280;33874;52.070;-0.516;2023-04-22T03:37:36;100258.98;;;7.84;77.17
48095;BME280;33874;52.070;-0.516;2023-04-22T03:40:30;100258.19;;;7.89;77.16
48095;BME280;33874;52.070;-0.516;2023-04-22T03:42:58;100253.19;;;7.90;77.00
48095;BME280;33874;52.070;-0.516;2023-04-22T03:45:26;100248.83;;;7.94;77.12
48095;BME280;33874;52.070;-0.516;2023-04-22T03:47:54;100243.71;;;7.93;76.54
48095;BME280;33874;52.070;-0.516;2023-04-22T03:50:23;100243.02;;;7.89;76.26
48095;BME280;33874;52.070;-0.516;2023-04-22T03:52:51;100244.70;;;7.85;76.30
48095;BME280;33874;52.070;-0.516;2023-04-22T03:55:20;100242.73;;;7.84;76.40
48095;BME280;33874;52.070;-0.516;2023-04-22T03:57:48;100244.07;;;7.78;76.28
48095;BME280;33874;52.070;-0.516;2023-04-22T04:00:16;100237.56;;;7.74;76.56
48095;BME280;33874;52.070;-0.516;2023-04-22T04:02:44;100234.01;;;7.75;76.72
48095;BME280;33874;52.070;-0.516;2023-04-22T04:05:12;100232.56;;;7.75;76.75
48095;BME280;33874;52.070;-0.516;2023-04-22T04:07:43;100227.20;;;7.77;76.63
48095;BME280;33874;52.070;-0.516;2023-04-22T04:10:14;100230.09;;;7.78;76.76
48095;BME280;33874;52.070;-0.516;2023-04-22T04:12:42;100227.11;;;7.78;76.56
48095;BME280;33874;52.070;-0.516;2023-04-22T04:15:10;100225.98;;;7.79;76.92
48095;BME280;33874;52.070;-0.516;2023-04-22T04:17:38;100222.77;;;7.77;76.59
48095;BME280;33874;52.070;-0.516;2023-04-22T04:20:07;100216.95;;;7.76;76.31
48095;BME280;33874;52.070;-0.516;2023-04-22T04:22:35;100216.08;;;7.71;76.14
48095;BME280;33874;52.070;-0.516;2023-04-22T04:25:04;100217.30;;;7.69;76.26
48095;BME280;33874;52.070;-0.516;2023-04-22T04:27:33;100212.21;;;7.67;76.09
48095;BME280;33874;52.070;-0.516;2023-04-22T04:30:08;100209.31;;;7.64;76.09
48095;BME280;33874;52.070;-0.516;2023-04-22T04:32:36;100204.23;;;7.60;75.88
48095;BME280;33874;52.070;-0.516;2023-04-22T04:35:05;100209.29;;;7.58;76.18
48095;BME280;33874;52.070;-0.516;2023-04-22T04:37:33;100212.14;;;7.59;76.31
48095;BME280;33874;52.070;-0.516;2023-04-22T04:40:01;100215.89;;;7.58;76.20
48095;BME280;33874;52.070;-0.516;2023-04-22T04:42:29;100219.10;;;7.57;76.22
48095;BME280;33874;52.070;-0.516;2023-04-22T04:45:00;100220.13;;;7.60;76.42
48095;BME280;33874;52.070;-0.516;2023-04-22T04:47:31;100220.05;;;7.63;76.80
48095;BME280;33874;52.070;-0.516;2023-04-22T04:50:09;100212.73;;;7.67;76.60
48095;BME280;33874;52.070;-0.516;2023-04-22T04:52:40;100206.94;;;7.70;76.66
48095;BME280;33874;52.070;-0.516;2023-04-22T04:55:08;100205.46;;;7.73;76.81
48095;BME280;33874;52.070;-0.516;2023-04-22T04:57:36;100202.48;;;7.75;76.65
48095;BME280;33874;52.070;-0.516;2023-04-22T05:00:05;100202.66;;;7.77;76.65
48095;BME280;33874;52.070;-0.516;2023-04-22T05:02:34;100200.64;;;7.81;76.70
48095;BME280;33874;52.070;-0.516;2023-04-22T05:05:03;100203.17;;;7.82;76.38
48095;BME280;33874;52.070;-0.516;2023-04-22T05:07:31;100207.39;;;7.79;76.33
48095;BME280;33874;52.070;-0.516;2023-04-22T05:09:59;100198.96;;;7.78;76.26
48095;BME280;33874;52.070;-0.516;2023-04-22T05:12:27;100199.00;;;7.73;75.72
48095;BME280;33874;52.070;-0.516;2023-04-22T05:14:55;100192.42;;;7.67;75.81
48095;BME280;33874;52.070;-0.516;2023-04-22T05:17:23;100188.75;;;7.61;75.79
48095;BME280;33874;52.070;-0.516;2023-04-22T05:19:51;100182.39;;;7.55;75.73
48095;BME280;33874;52.070;-0.516;2023-04-22T05:22:20;100184.66;;;7.51;75.77
48095;BME280;33874;52.070;-0.516;2023-04-22T05:24:50;100185.02;;;7.49;76.00
48095;BME280;33874;52.070;-0.516;2023-04-22T05:27:18;100187.95;;;7.47;75.69
48095;BME280;33874;52.070;-0.516;2023-04-22T05:29:47;100187.20;;;7.44;75.90
48095;BME280;33874;52.070;-0.516;2023-04-22T05:32:15;100189.48;;;7.45;75.91
48095;BME280;33874;52.070;-0.516;2023-04-22T05:34:44;100192.09;;;7.46;75.77
48095;BME280;33874;52.070;-0.516;2023-04-22T05:37:12;100198.95;;;7.47;75.89
48095;BME280;33874;52.070;-0.516;2023-04-22T05:39:39;100200.80;;;7.51;76.04
48095;BME280;33874;52.070;-0.516;2023-04-22T05:42:08;100199.62;;;7.50;75.76
48095;BME280;33874;52.070;-0.516;2023-04-22T05:44:37;100201.69;;;7.48;75.36
48095;BME280;33874;52.070;-0.516;2023-04-22T05:47:05;100199.92;;;7.49;75.54
48095;BME280;33874;52.070;-0.516;2023-04-22T05:49:33;100202.14;;;7.52;75.59
48095;BME280;33874;52.070;-0.516;2023-04-22T05:52:02;100201.88;;;7.50;75.26
48095;BME280;33874;52.070;-0.516;2023-04-22T05:54:31;100204.19;;;7.54;75.93
48095;BME280;33874;52.070;-0.516;2023-04-22T05:56:59;100212.48;;;7.60;75.92
48095;BME280;33874;52.070;-0.516;2023-04-22T05:59:29;100214.83;;;7.61;75.69
48095;BME280;33874;52.070;-0.516;2023-04-22T06:01:58;100212.44;;;7.64;75.97
48095;BME280;33874;52.070;-0.516;2023-04-22T06:04:26;100206.04;;;7.68;75.82
48095;BME280;33874;52.070;-0.516;2023-04-22T06:06:54;100208.20;;;7.71;75.88
48095;BME280;33874;52.070;-0.516;2023-04-22T06:09:22;100205.64;;;7.73;75.47
48095;BME280;33874;52.070;-0.516;2023-04-22T06:11:50;100204.59;;;7.64;75.33
48095;BME280;33874;52.070;-0.516;2023-04-22T06:14:18;100199.70;;;7.58;75.24
48095;BME280;33874;52.070;-0.516;2023-04-22T06:16:46;100194.48;;;7.57;75.51
48095;BME280;33874;52.070;-0.516;2023-04-22T06:19:14;100199.88;;;7.56;75.59
48095;BME280;33874;52.070;-0.516;2023-04-22T06:21:42;100201.73;;;7.54;75.51
48095;BME280;33874;52.070;-0.516;2023-04-22T06:24:10;100203.41;;;7.53;75.73
48095;BME280;33874;52.070;-0.516;2023-04-22T06:26:38;100206.26;;;7.55;75.70
48095;BME280;33874;52.070;-0.516;2023-04-22T06:29:06;100205.06;;;7.54;75.76
48095;BME280;33874;52.070;-0.516;2023-04-22T06:31:34;100199.52;;;7.58;75.95
48095;BME280;33874;52.070;-0.516;2023-04-22T06:34:03;100199.27;;;7.59;75.75
48095;BME280;33874;52.070;-0.516;2023-04-22T06:36:32;100198.36;;;7.59;75.77
48095;BME280;33874;52.070;-0.516;2023-04-22T06:39:04;100196.62;;;7.67;75.75
48095;BME280;33874;52.070;-0.516;2023-04-22T06:41:36;100197.70;;;7.71;75.52
48095;BME280;33874;52.070;-0.516;2023-04-22T06:44:07;100198.43;;;7.78;75.51
48095;BME280;33874;52.070;-0.516;2023-04-22T06:46:35;100193.67;;;7.86;75.34
48095;BME280;33874;52.070;-0.516;2023-04-22T06:49:06;100191.41;;;7.95;75.22
48095;BME280;33874;52.070;-0.516;2023-04-22T06:51:34;100188.59;;;8.01;75.34
48095;BME280;33874;52.070;-0.516;2023-04-22T06:54:19;100192.11;;;8.11;75.55
48095;BME280;33874;52.070;-0.516;2023-04-22T06:56:47;100197.15;;;8.25;75.61
48095;BME280;33874;52.070;-0.516;2023-04-22T06:59:16;100196.17;;;8.32;74.99
48095;BME280;33874;52.070;-0.516;2023-04-22T07:01:44;100201.18;;;8.33;74.53
48095;BME280;33874;52.070;-0.516;2023-04-22T07:04:30;100198.41;;;8.41;74.75
48095;BME280;33874;52.070;-0.516;2023-04-22T07:06:58;100197.83;;;8.54;74.94
48095;BME280;33874;52.070;-0.516;2023-04-22T07:09:26;100197.18;;;8.66;74.77
48095;BME280;33874;52.070;-0.516;2023-04-22T07:11:58;100195.54;;;8.79;74.44
48095;BME280;33874;52.070;-0.516;2023-04-22T07:14:26;100197.98;;;8.87;74.00
48095;BME280;33874;52.070;-0.516;2023-04-22T07:16:54;100196.79;;;8.99;74.13
48095;BME280;33874;52.070;-0.516;2023-04-22T07:19:22;100202.50;;;9.10;74.01
48095;BME280;33874;52.070;-0.516;2023-04-22T07:21:50;100205.29;;;9.16;73.47
48095;BME280;33874;52.070;-0.516;2023-04-22T07:24:18;100203.07;;;9.07;72.81
48095;BME280;33874;52.070;-0.516;2023-04-22T07:26:46;100203.38;;;9.00;72.68
48095;BME280;33874;52.070;-0.516;2023-04-22T07:29:15;100210.12;;;8.99;72.78
48095;BME280;33874;52.070;-0.516;2023-04-22T07:31:42;100215.51;;;9.05;73.04
48095;BME280;33874;52.070;-0.516;2023-04-22T07:34:11;100214.11;;;9.13;73.15
48095;BME280;33874;52.070;-0.516;2023-04-22T07:36:39;100210.66;;;9.19;73.05
48095;BME280;33874;52.070;-0.516;2023-04-22T07:39:10;100208.88;;;9.29;73.38
48095;BME280;33874;52.070;-0.516;2023-04-22T07:41:38;100204.39;;;9.44;73.34
48095;BME280;33874;52.070;-0.516;2023-04-22T07:44:06;100204.67;;;9.62;73.31
48095;BME280;33874;52.070;-0.516;2023-04-22T07:46:33;100206.98;;;9.82;73.18
48095;BME280;33874;52.070;-0.516;2023-04-22T07:49:01;100210.28;;;10.09;73.12
48095;BME280;33874;52.070;-0.516;2023-04-22T07:51:29;100208.89;;;10.49;72.71
48095;BME280;33874;52.070;-0.516;2023-04-22T07:54:14;100208.70;;;11.01;72.46
48095;BME280;33874;52.070;-0.516;2023-04-22T07:56:42;100200.65;;;11.47;71.54
48095;BME280;33874;52.070;-0.516;2023-04-22T07:59:10;100193.15;;;11.87;71.14
48095;BME280;33874;52.070;-0.516;2023-04-22T08:01:38;100187.49;;;12.07;70.47
48095;BME280;33874;52.070;-0.516;2023-04-22T08:04:06;100185.88;;;12.56;70.54
48095;BME280;33874;52.070;-0.516;2023-04-22T08:06:35;100182.67;;;13.01;69.65
48095;BME280;33874;52.070;-0.516;2023-04-22T08:09:03;100182.77;;;13.34;69.40
48095;BME280;33874;52.070;-0.516;2023-04-22T08:11:31;100184.23;;;13.53;68.96
48095;BME280;33874;52.070;-0.516;2023-04-22T08:14:02;100183.96;;;13.66;68.44
48095;BME280;33874;52.070;-0.516;2023-04-22T08:16:30;100185.63;;;13.74;68.14
48095;BME280;33874;52.070;-0.516;2023-04-22T08:18:58;100186.73;;;13.70;67.84
48095;BME280;33874;52.070;-0.516;2023-04-22T08:21:25;100187.88;;;13.54;66.85
48095;BME280;33874;52.070;-0.516;2023-04-22T08:23:58;100188.46;;;13.35;66.62
48095;BME280;33874;52.070;-0.516;2023-04-22T08:26:26;100185.15;;;13.35;66.78
48095;BME280;33874;52.070;-0.516;2023-04-22T08:28:54;100175.48;;;13.46;66.51
48095;BME280;33874;52.070;-0.516;2023-04-22T08:31:22;100168.73;;;13.60;65.90
48095;BME280;33874;52.070;-0.516;2023-04-22T08:33:50;100166.06;;;13.78;66.00
48095;BME280;33874;52.070;-0.516;2023-04-22T08:36:18;100162.17;;;13.97;65.92
48095;BME280;33874;52.070;-0.516;2023-04-22T08:38:49;100160.97;;;14.12;65.15
48095;BME280;33874;52.070;-0.516;2023-04-22T08:41:18;100161.80;;;14.12;64.62
48095;BME280;33874;52.070;-0.516;2023-04-22T08:43:47;100159.05;;;14.08;64.63
48095;BME280;33874;52.070;-0.516;2023-04-22T08:46:16;100154.41;;;14.12;64.91
48095;BME280;33874;52.070;-0.516;2023-04-22T08:48:46;100159.41;;;14.13;64.80
48095;BME280;33874;52.070;-0.516;2023-04-22T08:51:17;100152.65;;;14.17;64.43
48095;BME280;33874;52.070;-0.516;2023-04-22T08:53:46;100161.09;;;14.05;63.85
48095;BME280;33874;52.070;-0.516;2023-04-22T08:56:14;100160.15;;;13.93;63.96
48095;BME280;33874;52.070;-0.516;2023-04-22T08:58:42;100160.92;;;13.93;64.11
48095;BME280;33874;52.070;-0.516;2023-04-22T09:01:10;100160.49;;;13.85;63.90
48095;BME280;33874;52.070;-0.516;2023-04-22T09:03:44;100159.96;;;13.76;63.69
48095;BME280;33874;52.070;-0.516;2023-04-22T09:06:15;100160.48;;;13.72;63.42
48095;BME280;33874;52.070;-0.516;2023-04-22T09:08:44;100164.39;;;13.74;63.47
48095;BME280;33874;52.070;-0.516;2023-04-22T09:11:12;100162.73;;;13.76;63.13
48095;BME280;33874;52.070;-0.516;2023-04-22T09:13:44;100165.56;;;13.80;63.11
48095;BME280;33874;52.070;-0.516;2023-04-22T09:16:13;100168.69;;;13.85;62.75
48095;BME280;33874;52.070;-0.516;2023-04-22T09:18:42;100169.56;;;13.89;62.52
48095;BME280;33874;52.070;-0.516;2023-04-22T09:21:12;100158.33;;;14.13;63.03
48095;BME280;33874;52.070;-0.516;2023-04-22T09:23:50;100160.37;;;14.29;62.61
48095;BME280;33874;52.070;-0.516;2023-04-22T09:26:18;100161.66;;;14.43;62.64
48095;BME280;33874;52.070;-0.516;2023-04-22T09:28:49;100156.97;;;14.56;62.14
48095;BME280;33874;52.070;-0.516;2023-04-22T09:31:19;100155.16;;;14.52;62.07
48095;BME280;33874;52.070;-0.516;2023-04-22T09:33:48;100157.28;;;14.52;62.24
48095;BME280;33874;52.070;-0.516;2023-04-22T09:36:20;100159.31;;;14.58;62.26
48095;BME280;33874;52.070;-0.516;2023-04-22T09:38:52;100153.02;;;14.56;61.87
48095;BME280;33874;52.070;-0.516;2023-04-22T09:41:27;100153.91;;;14.60;61.82
48095;BME280;33874;52.070;-0.516;2023-04-22T09:44:07;100153.82;;;14.66;61.62
48095;BME280;33874;52.070;-0.516;2023-04-22T09:46:35;100149.82;;;14.71;61.28
48095;BME280;33874;52.070;-0.516;2023-04-22T09:49:03;100148.17;;;14.72;61.03
48095;BME280;33874;52.070;-0.516;2023-04-22T09:51:31;100146.89;;;14.74;60.76
48095;BME280;33874;52.070;-0.516;2023-04-22T09:54:05;100148.38;;;14.78;60.70
48095;BME280;33874;52.070;-0.516;2023-04-22T09:59:23;100151.03;;;14.94;60.23
48095;BME280;33874;52.070;-0.516;2023-04-22T10:01:55;100149.35;;;15.05;60.10
48095;BME280;33874;52.070;-0.516;2023-04-22T10:04:23;100145.02;;;15.14;59.84
48095;BME280;33874;52.070;-0.516;2023-04-22T10:06:55;100147.60;;;15.19;59.69
48095;BME280;33874;52.070;-0.516;2023-04-22T10:09:24;100151.43;;;15.29;59.78
48095;BME280;33874;52.070;-0.516;2023-04-22T10:11:53;100144.92;;;15.49;59.82
48095;BME280;33874;52.070;-0.516;2023-04-22T10:14:22;100143.05;;;15.73;59.46
48095;BME280;33874;52.070;-0.516;2023-04-22T10:16:58;100140.21;;;15.86;58.75
48095;BME280;33874;52.070;-0.516;2023-04-22T10:19:31;100137.30;;;15.81;57.71
48095;BME280;33874;52.070;-0.516;2023-04-22T10:22:01;100136.65;;;15.67;57.27
48095;BME280;33874;52.070;-0.516;2023-04-22T10:24:33;100133.52;;;15.68;57.97
48095;BME280;33874;52.070;-0.516;2023-04-22T10:27:04;100130.23;;;15.72;57.82
48095;BME280;33874;52.070;-0.516;2023-04-22T10:29:42;100129.92;;;15.45;56.73
48095;BME280;33874;52.070;-0.516;2023-04-22T10:34:47;100132.65;;;14.84;55.70
48095;BME280;33874;52.070;-0.516;2023-04-22T10:37:19;100132.98;;;14.61;56.50
48095;BME280;33874;52.070;-0.516;2023-04-22T10:40:10;100131.47;;;14.76;57.33
48095;BME280;33874;52.070;-0.516;2023-04-22T10:42:48;100132.86;;;15.09;57.79
48095;BME280;33874;52.070;-0.516;2023-04-22T10:45:17;100129.97;;;15.42;57.54
48095;BME280;33874;52.070;-0.516;2023-04-22T10:48:03;100126.49;;;15.64;57.10
48095;BME280;33874;52.070;-0.516;2023-04-22T10:50:32;100127.20;;;15.89;57.10
48095;BME280;33874;52.070;-0.516;2023-04-22T10:53:33;100123.80;;;15.98;55.47
48095;BME280;33874;52.070;-0.516;2023-04-22T10:55:49;100126.67;;;15.78;54.78
48095;BME280;33874;52.070;-0.516;2023-04-22T10:58:35;100127.77;;;15.67;54.46
48095;BME280;33874;52.070;-0.516;2023-04-22T11:01:05;100129.93;;;15.71;55.12
48095;BME280;33874;52.070;-0.516;2023-04-22T11:04:17;100119.66;;;15.96;54.94
48095;BME280;33874;52.070;-0.516;2023-04-22T11:07:33;100120.31;;;16.14;54.81
48095;BME280;33874;52.070;-0.516;2023-04-22T11:09:52;100118.52;;;16.34;54.74
48095;BME280;33874;52.070;-0.516;2023-04-22T11:17:34;100118.11;;;16.49;52.29
48095;BME280;33874;52.070;-0.516;2023-04-22T11:20:03;100119.29;;;16.24;52.14
48095;BME280;33874;52.070;-0.516;2023-04-22T11:22:41;100118.14;;;15.98;51.80
48095;BME280;33874;52.070;-0.516;2023-04-22T11:25:16;100124.54;;;15.71;52.36
48095;BME280;33874;52.070;-0.516;2023-04-22T11:27:48;100122.02;;;15.60;52.64
48095;BME280;33874;52.070;-0.516;2023-04-22T11:30:31;100124.56;;;15.46;52.60
48095;BME280;33874;52.070;-0.516;2023-04-22T11:32:59;100124.71;;;15.43;52.78
48095;BME280;33874;52.070;-0.516;2023-04-22T11:35:32;100127.43;;;15.37;52.49
48095;BME280;33874;52.070;-0.516;2023-04-22T11:38:02;100122.78;;;15.36;52.47
48095;BME280;33874;52.070;-0.516;2023-04-22T11:40:32;100118.96;;;15.45;52.89
48095;BME280;33874;52.070;-0.516;2023-04-22T11:43:05;100115.82;;;15.57;52.51
48095;BME280;33874;52.070;-0.516;2023-04-22T11:48:27;100113.73;;;15.57;51.56
48095;BME280;33874;52.070;-0.516;2023-04-22T11:51:08;100111.30;;;15.72;51.89
48095;BME280;33874;52.070;-0.516;2023-04-22T11:53:37;100109.72;;;15.95;52.06
48095;BME280;33874;52.070;-0.516;2023-04-22T11:56:08;100106.48;;;16.11;50.98
48095;BME280;33874;52.070;-0.516;2023-04-22T11:58:37;100110.19;;;16.26;51.50
48095;BME280;33874;52.070;-0.516;2023-04-22T12:01:05;100111.44;;;16.54;51.48
48095;BME280;33874;52.070;-0.516;2023-04-22T12:03:41;100114.70;;;16.77;51.23
48095;BME280;33874;52.070;-0.516;2023-04-22T12:06:11;100111.95;;;16.98;50.97
48095;BME280;33874;52.070;-0.516;2023-04-22T12:08:39;100114.39;;;17.06;49.67
48095;BME280;33874;52.070;-0.516;2023-04-22T12:11:12;100115.08;;;17.06;50.03
48095;BME280;33874;52.070;-0.516;2023-04-22T12:13:41;100117.52;;;17.19;50.04
48095;BME280;33874;52.070;-0.516;2023-04-22T12:16:14;100122.05;;;17.24;49.63
48095;BME280;33874;52.070;-0.516;2023-04-22T12:21:20;100130.26;;;17.37;49.56
48095;BME280;33874;52.070;-0.516;2023-04-22T12:23:56;100127.44;;;17.43;49.07
48095;BME280;33874;52.070;-0.516;2023-04-22T12:26:26;100126.80;;;17.62;49.11
48095;BME280;33874;52.070;-0.516;2023-04-22T12:28:55;100128.03;;;17.78;48.79
48095;BME280;33874;52.070;-0.516;2023-04-22T12:31:24;100127.50;;;17.87;47.98
48095;BME280;33874;52.070;-0.516;2023-04-22T12:33:55;100125.07;;;17.81;47.25
48095;BME280;33874;52.070;-0.516;2023-04-22T12:36:24;100124.52;;;17.64;47.14
48095;BME280;33874;52.070;-0.516;2023-04-22T12:38:52;100124.52;;;17.55;46.98
48095;BME280;33874;52.070;-0.516;2023-04-22T12:41:21;100125.01;;;17.54;47.19
48095;BME280;33874;52.070;-0.516;2023-04-22T12:43:50;100123.09;;;17.48;47.29
48095;BME280;33874;52.070;-0.516;2023-04-22T12:46:20;100121.84;;;17.49;47.09
48095;BME280;33874;52.070;-0.516;2023-04-22T12:48:49;100123.02;;;17.53;47.39
48095;BME280;33874;52.070;-0.516;2023-04-22T12:51:20;100127.44;;;17.73;47.15
48095;BME280;33874;52.070;-0.516;2023-04-22T12:53:48;100128.46;;;17.76;45.78
48095;BME280;33874;52.070;-0.516;2023-04-22T12:56:16;100131.33;;;17.69;45.22
48095;BME280;33874;52.070;-0.516;2023-04-22T12:58:44;100129.55;;;17.59;45.41
48095;BME280;33874;52.070;-0.516;2023-04-22T13:01:16;100127.64;;;17.47;45.46
48095;BME280;33874;52.070;-0.516;2023-04-22T13:03:48;100134.78;;;17.57;46.51
48095;BME280;33874;52.070;-0.516;2023-04-22T13:06:25;100129.13;;;17.81;46.86
48095;BME280;33874;52.070;-0.516;2023-04-22T13:08:58;100128.48;;;18.07;46.78
48095;BME280;33874;52.070;-0.516;2023-04-22T13:11:26;100129.58;;;18.08;45.28
48095;BME280;33874;52.070;-0.516;2023-04-22T13:14:14;100126.83;;;17.86;44.49
48095;BME280;33874;52.070;-0.516;2023-04-22T13:16:50;100122.85;;;17.43;44.02
48095;BME280;33874;52.070;-0.516;2023-04-22T13:22:43;100114.81;;;16.93;44.60
48095;BME280;33874;52.070;-0.516;2023-04-22T13:25:11;100115.33;;;17.01;46.02
48095;BME280;33874;52.070;-0.516;2023-04-22T13:27:39;100112.64;;;17.19;45.14
48095;BME280;33874;52.070;-0.516;2023-04-22T13:30:12;100115.04;;;17.12;45.08
48095;BME280;33874;52.070;-0.516;2023-04-22T13:32:40;100117.20;;;17.32;45.36